sensor_id;sensor_type;location;lat;lon;timestamp;pressure;altitude;pressure_sealevel;temperature;humidity
21900;BME280;11114;50.658;12.704;2022-07-23T00:00:18;96161.28;;;22.32;50.29
21900;BME280;11114;50.658;12.704;2022-07-23T00:02:44;96161.88;;;22.34;50.25
21900;BME280;11114;50.658;12.704;2022-07-23T00:05:11;96161.72;;;22.29;50.14
21900;BME280;11114;50.658;12.704;2022-07-23T00:07:38;96161.94;;;22.27;50.33
21900;BME280;11114;50.658;12.704;2022-07-23T00:10:05;96160.25;;;22.33;50.29
21900;BME280;11114;50.658;12.704;2022-07-23T00:12:32;96154.94;;;22.33;50.21
21900;BME280;11114;50.658;12.704;2022-07-23T00:14:59;96157.81;;;22.31;50.18
21900;BME280;11114;50.658;12.704;2022-07-23T00:17:26;96149.47;;;22.28;50.34
21900;BME280;11114;50.658;12.704;2022-07-23T00:19:53;96147.25;;;22.25;50.50
21900;BME280;11114;50.658;12.704;2022-07-23T00:22:20;96142.28;;;22.17;50.61
21900;BME280;11114;50.658;12.704;2022-07-23T00:24:47;96128.41;;;22.15;50.77
21900;BME280;11114;50.658;12.704;2022-07-23T00:27:34;96124.47;;;22.17;50.79
21900;BME280;11114;50.658;12.704;2022-07-23T00:30:00;96128.88;;;22.23;50.79
21900;BME280;11114;50.658;12.704;2022-07-23T00:32:27;96123.22;;;22.20;50.88
21900;BME280;11114;50.658;12.704;2022-07-23T00:35:14;96130.59;;;22.18;50.90
21900;BME280;11114;50.658;12.704;2022-07-23T00:37:42;96118.78;;;22.14;51.01
21900;BME280;11114;50.658;12.704;2022-07-23T00:40:10;96116.50;;;22.17;51.12
21900;BME280;11114;50.658;12.704;2022-07-23T00:42:37;96115.09;;;22.15;50.99
21900;BME280;11114;50.658;12.704;2022-07-23T00:45:05;96106.09;;;22.16;51.42
21900;BME280;11114;50.658;12.704;2022-07-23T00:47:33;96113.13;;;22.22;51.14
21900;BME280;11114;50.658;12.704;2022-07-23T00:50:00;96120.66;;;22.25;51.28
21900;BME280;11114;50.658;12.704;2022-07-23T00:52:27;96116.50;;;22.29;51.31
21900;BME280;11114;50.658;12.704;2022-07-23T00:54:53;96109.94;;;22.31;51.23
21900;BME280;11114;50.658;12.704;2022-07-23T00:57:20;96096.03;;;22.29;51.18
21900;BME280;11114;50.658;12.704;2022-07-23T00:59:54;96109.91;;;22.20;51.37
21900;BME280;11114;50.658;12.704;2022-07-23T01:02:20;96096.84;;;22.18;51.47
21900;BME280;11114;50.658;12.704;2022-07-23T01:04:48;96089.09;;;22.17;51.51
21900;BME280;11114;50.658;12.704;2022-07-23T01:07:16;96090.94;;;22.16;51.58
21900;BME280;11114;50.658;12.704;2022-07-23T01:09:43;96090.72;;;22.18;51.83
21900;BME280;11114;50.658;12.704;2022-07-23T01:12:10;96080.66;;;22.20;51.74
21900;BME280;11114;50.658;12.704;2022-07-23T01:14:37;96076.38;;;22.19;51.61
21900;BME280;11114;50.658;12.704;2022-07-23T01:17:05;96072.56;;;22.15;51.74
21900;BME280;11114;50.658;12.704;2022-07-23T01:19:32;96067.47;;;22.13;51.65
21900;BME280;11114;50.658;12.704;2022-07-23T01:22:02;96063.19;;;22.12;51.72
21900;BME280;11114;50.658;12.704;2022-07-23T01:24:30;96061.00;;;22.09;51.72
21900;BME280;11114;50.658;12.704;2022-07-23T01:27:03;96053.94;;;22.03;51.64
21900;BME280;11114;50.658;12.704;2022-07-23T01:29:35;96049.19;;;21.94;51.98
21900;BME280;11114;50.658;12.704;2022-07-23T01:32:06;96050.13;;;21.88;52.03
21900;BME280;11114;50.658;12.704;2022-07-23T01:34:33;96044.81;;;21.88;52.15
21900;BME280;11114;50.658;12.704;2022-07-23T01:37:00;96039.81;;;21.91;52.21
21900;BME280;11114;50.658;12.704;2022-07-23T01:39:28;96041.44;;;21.92;52.14
21900;BME280;11114;50.658;12.704;2022-07-23T01:41:55;96036.38;;;21.91;52.01
21900;BME280;11114;50.658;12.704;2022-07-23T01:44:23;96026.09;;;21.83;52.30
21900;BME280;11114;50.658;12.704;2022-07-23T01:46:50;96028.97;;;21.81;52.37
21900;BME280;11114;50.658;12.704;2022-07-23T01:49:19;96023.28;;;21.78;52.45
21900;BME280;11114;50.658;12.704;2022-07-23T01:51:57;96021.13;;;21.75;52.67
21900;BME280;11114;50.658;12.704;2022-07-23T01:54:39;96028.06;;;21.76;52.64
21900;BME280;11114;50.658;12.704;2022-07-23T01:57:08;96030.22;;;21.79;52.70
21900;BME280;11114;50.658;12.704;2022-07-23T01:59:35;96022.84;;;21.81;52.77
21900;BME280;11114;50.658;12.704;2022-07-23T02:02:03;96027.22;;;21.87;52.55
21900;BME280;11114;50.658;12.704;2022-07-23T02:04:30;96014.88;;;21.92;52.52
21900;BME280;11114;50.658;12.704;2022-07-23T02:06:59;96022.41;;;21.95;52.36
21900;BME280;11114;50.658;12.704;2022-07-23T02:09:26;96026.78;;;21.90;52.28
21900;BME280;11114;50.658;12.704;2022-07-23T02:11:53;96031.56;;;21.47;53.13
21900;BME280;11114;50.658;12.704;2022-07-23T02:14:20;96043.38;;;21.22;53.91
21900;BME280;11114;50.658;12.704;2022-07-23T02:16:50;96045.06;;;21.16;54.11
21900;BME280;11114;50.658;12.704;2022-07-23T02:19:17;96037.69;;;21.18;54.19
21900;BME280;11114;50.658;12.704;2022-07-23T02:21:44;96038.06;;;20.92;54.65
21900;BME280;11114;50.658;12.704;2022-07-23T02:24:11;96025.69;;;20.86;54.91
21900;BME280;11114;50.658;12.704;2022-07-23T02:26:40;96045.59;;;20.95;55.02
21900;BME280;11114;50.658;12.704;2022-07-23T02:29:08;96046.88;;;21.04;54.70
21900;BME280;11114;50.658;12.704;2022-07-23T02:31:35;96040.31;;;21.07;54.16
21900;BME280;11114;50.658;12.704;2022-07-23T02:34:03;96046.22;;;21.09;54.26
21900;BME280;11114;50.658;12.704;2022-07-23T02:36:31;96036.28;;;21.04;54.59
21900;BME280;11114;50.658;12.704;2022-07-23T02:38:58;96026.81;;;21.08;54.52
21900;BME280;11114;50.658;12.704;2022-07-23T02:41:27;96020.69;;;21.08;54.47
21900;BME280;11114;50.658;12.704;2022-07-23T02:43:55;96026.00;;;21.08;54.45
21900;BME280;11114;50.658;12.704;2022-07-23T02:46:22;96037.91;;;21.05;54.71
21900;BME280;11114;50.658;12.704;2022-07-23T02:48:49;96027.16;;;20.82;54.92
21900;BME280;11114;50.658;12.704;2022-07-23T02:51:16;96016.53;;;20.82;54.99
21900;BME280;11114;50.658;12.704;2022-07-23T02:53:50;96013.22;;;20.87;54.65
21900;BME280;11114;50.658;12.704;2022-07-23T02:56:17;96012.78;;;20.90;54.72
21900;BME280;11114;50.658;12.704;2022-07-23T02:58:43;96016.38;;;20.95;54.68
21900;BME280;11114;50.658;12.704;2022-07-23T03:01:11;96022.13;;;20.92;54.59
21900;BME280;11114;50.658;12.704;2022-07-23T03:03:38;96011.97;;;20.71;54.70
21900;BME280;11114;50.658;12.704;2022-07-23T03:06:05;96006.25;;;20.57;55.17
21900;BME280;11114;50.658;12.704;2022-07-23T03:08:37;96013.09;;;20.64;55.07
21900;BME280;11114;50.658;12.704;2022-07-23T03:11:03;96012.63;;;20.67;55.20
21900;BME280;11114;50.658;12.704;2022-07-23T03:13:31;96014.63;;;20.71;55.00
21900;BME280;11114;50.658;12.704;2022-07-23T03:16:01;96020.75;;;20.72;54.99
21900;BME280;11114;50.658;12.704;2022-07-23T03:18:28;96024.78;;;20.74;55.22
21900;BME280;11114;50.658;12.704;2022-07-23T03:20:55;96016.09;;;20.67;55.35
21900;BME280;11114;50.658;12.704;2022-07-23T03:23:21;96021.00;;;20.53;55.92
21900;BME280;11114;50.658;12.704;2022-07-23T03:25:48;96013.97;;;20.58;55.68
21900;BME280;11114;50.658;12.704;2022-07-23T03:28:21;96013.09;;;20.64;55.56
21900;BME280;11114;50.658;12.704;2022-07-23T03:30:48;96006.88;;;20.70;55.46
21900;BME280;11114;50.658;12.704;2022-07-23T03:33:19;96014.63;;;20.71;55.64
21900;BME280;11114;50.658;12.704;2022-07-23T03:35:47;96027.97;;;20.65;55.69
21900;BME280;11114;50.658;12.704;2022-07-23T03:38:24;96033.72;;;20.26;56.49
21900;BME280;11114;50.658;12.704;2022-07-23T03:40:52;96020.03;;;20.29;56.78
21900;BME280;11114;50.658;12.704;2022-07-23T03:43:19;96008.47;;;20.42;56.89
21900;BME280;11114;50.658;12.704;2022-07-23T03:45:46;95997.69;;;20.55;56.78
21900;BME280;11114;50.658;12.704;2022-07-23T03:48:13;95999.50;;;20.43;57.10
21900;BME280;11114;50.658;12.704;2022-07-23T03:50:40;96006.63;;;20.42;57.02
21900;BME280;11114;50.658;12.704;2022-07-23T03:53:07;96013.53;;;20.25;57.61
21900;BME280;11114;50.658;12.704;2022-07-23T03:55:34;96019.38;;;20.34;57.63
21900;BME280;11114;50.658;12.704;2022-07-23T03:58:01;96025.72;;;20.33;57.74
21900;BME280;11114;50.658;12.704;2022-07-23T04:00:28;96025.09;;;20.31;57.59
21900;BME280;11114;50.658;12.704;2022-07-23T04:02:54;96024.88;;;20.32;58.00
21900;BME280;11114;50.658;12.704;2022-07-23T04:05:21;96015.41;;;20.43;57.68
21900;BME280;11114;50.658;12.704;2022-07-23T04:07:52;96022.16;;;20.57;57.87
21900;BME280;11114;50.658;12.704;2022-07-23T04:10:19;96025.19;;;20.78;56.94
21900;BME280;11114;50.658;12.704;2022-07-23T04:12:46;96024.00;;;20.74;56.91
21900;BME280;11114;50.658;12.704;2022-07-23T04:15:12;96018.41;;;20.64;57.14
21900;BME280;11114;50.658;12.704;2022-07-23T04:17:39;96025.69;;;20.68;57.23
21900;BME280;11114;50.658;12.704;2022-07-23T04:20:06;96045.59;;;20.60;57.51
21900;BME280;11114;50.658;12.704;2022-07-23T04:22:40;96048.69;;;20.39;58.04
21900;BME280;11114;50.658;12.704;2022-07-23T04:25:08;96047.28;;;20.36;58.43
21900;BME280;11114;50.658;12.704;2022-07-23T04:27:35;96060.53;;;20.18;58.89
21900;BME280;11114;50.658;12.704;2022-07-23T04:30:02;96058.47;;;20.20;58.98
21900;BME280;11114;50.658;12.704;2022-07-23T04:32:29;96049.41;;;20.28;58.81
21900;BME280;11114;50.658;12.704;2022-07-23T04:34:56;96052.81;;;20.35;58.83
21900;BME280;11114;50.658;12.704;2022-07-23T04:37:23;96056.03;;;20.37;58.77
21900;BME280;11114;50.658;12.704;2022-07-23T04:39:50;96060.47;;;20.25;58.91
21900;BME280;11114;50.658;12.704;2022-07-23T04:42:17;96077.75;;;20.09;59.36
21900;BME280;11114;50.658;12.704;2022-07-23T04:44:43;96091.31;;;19.95;59.69
21900;BME280;11114;50.658;12.704;2022-07-23T04:47:12;96111.25;;;19.73;60.35
21900;BME280;11114;50.658;12.704;2022-07-23T04:49:41;96096.81;;;19.69;60.50
21900;BME280;11114;50.658;12.704;2022-07-23T04:52:08;96073.34;;;19.73;60.27
21900;BME280;11114;50.658;12.704;2022-07-23T04:54:36;96073.72;;;19.76;60.33
21900;BME280;11114;50.658;12.704;2022-07-23T04:57:02;96091.13;;;19.66;60.85
21900;BME280;11114;50.658;12.704;2022-07-23T04:59:30;96081.31;;;19.66;60.78
21900;BME280;11114;50.658;12.704;2022-07-23T05:02:01;96076.22;;;19.71;60.99
21900;BME280;11114;50.658;12.704;2022-07-23T05:04:29;96086.75;;;19.78;60.90
21900;BME280;11114;50.658;12.704;2022-07-23T05:06:58;96097.56;;;19.76;61.20
21900;BME280;11114;50.658;12.704;2022-07-23T05:09:25;96109.44;;;19.67;61.30
21900;BME280;11114;50.658;12.704;2022-07-23T05:11:51;96112.59;;;19.82;61.15
21900;BME280;11114;50.658;12.704;2022-07-23T05:14:19;96095.53;;;20.02;60.74
21900;BME280;11114;50.658;12.704;2022-07-23T05:16:47;96098.88;;;20.16;60.42
21900;BME280;11114;50.658;12.704;2022-07-23T05:19:19;96100.88;;;20.20;60.23
21900;BME280;11114;50.658;12.704;2022-07-23T05:21:51;96105.34;;;20.20;60.21
21900;BME280;11114;50.658;12.704;2022-07-23T05:24:17;96099.31;;;20.13;60.36
21900;BME280;11114;50.658;12.704;2022-07-23T05:26:45;96102.84;;;20.07;60.60
21900;BME280;11114;50.658;12.704;2022-07-23T05:29:12;96104.19;;;20.16;60.36
21900;BME280;11114;50.658;12.704;2022-07-23T05:31:39;96095.34;;;20.22;60.27
21900;BME280;11114;50.658;12.704;2022-07-23T05:34:06;96096.19;;;20.22;60.27
21900;BME280;11114;50.658;12.704;2022-07-23T05:36:35;96100.06;;;20.20;60.45
21900;BME280;11114;50.658;12.704;2022-07-23T05:39:03;96095.44;;;20.33;60.28
21900;BME280;11114;50.658;12.704;2022-07-23T05:41:35;96096.41;;;20.57;59.77
21900;BME280;11114;50.658;12.704;2022-07-23T05:44:03;96102.34;;;20.76;59.13
21900;BME280;11114;50.658;12.704;2022-07-23T05:46:36;96104.41;;;20.92;58.90
21900;BME280;11114;50.658;12.704;2022-07-23T05:49:06;96110.00;;;20.84;58.78
21900;BME280;11114;50.658;12.704;2022-07-23T05:51:51;96133.25;;;20.65;59.23
21900;BME280;11114;50.658;12.704;2022-07-23T05:54:27;96153.59;;;20.53;59.66
21900;BME280;11114;50.658;12.704;2022-07-23T05:56:54;96148.59;;;20.63;59.43
21900;BME280;11114;50.658;12.704;2022-07-23T05:59:21;96145.50;;;20.66;59.58
21900;BME280;11114;50.658;12.704;2022-07-23T06:01:48;96141.50;;;20.81;59.43
21900;BME280;11114;50.658;12.704;2022-07-23T06:04:15;96146.06;;;20.92;58.99
21900;BME280;11114;50.658;12.704;2022-07-23T06:06:53;96138.97;;;20.86;58.82
21900;BME280;11114;50.658;12.704;2022-07-23T06:09:20;96142.66;;;20.85;58.96
21900;BME280;11114;50.658;12.704;2022-07-23T06:11:48;96142.09;;;21.01;58.72
21900;BME280;11114;50.658;12.704;2022-07-23T06:14:15;96136.97;;;21.17;58.17
21900;BME280;11114;50.658;12.704;2022-07-23T06:16:54;96131.41;;;21.37;58.01
21900;BME280;11114;50.658;12.704;2022-07-23T06:19:23;96131.22;;;21.50;57.43
21900;BME280;11114;50.658;12.704;2022-07-23T06:21:50;96133.19;;;21.54;57.31
21900;BME280;11114;50.658;12.704;2022-07-23T06:24:17;96136.41;;;21.62;56.94
21900;BME280;11114;50.658;12.704;2022-07-23T06:26:44;96135.84;;;21.72;56.62
21900;BME280;11114;50.658;12.704;2022-07-23T06:29:11;96137.13;;;21.81;56.57
21900;BME280;11114;50.658;12.704;2022-07-23T06:31:38;96145.81;;;21.88;56.29
21900;BME280;11114;50.658;12.704;2022-07-23T06:34:05;96152.84;;;21.94;56.25
21900;BME280;11114;50.658;12.704;2022-07-23T06:36:34;96151.59;;;21.85;56.14
21900;BME280;11114;50.658;12.704;2022-07-23T06:39:01;96156.53;;;21.81;55.97
21900;BME280;11114;50.658;12.704;2022-07-23T06:41:29;96162.44;;;21.83;56.22
21900;BME280;11114;50.658;12.704;2022-07-23T06:43:56;96168.31;;;21.74;56.43
21900;BME280;11114;50.658;12.704;2022-07-23T06:46:23;96163.00;;;21.74;56.12
21900;BME280;11114;50.658;12.704;2022-07-23T06:48:51;96159.41;;;21.80;55.94
21900;BME280;11114;50.658;12.704;2022-07-23T06:51:18;96153.06;;;21.81;55.96
21900;BME280;11114;50.658;12.704;2022-07-23T06:53:45;96160.59;;;21.84;55.74
21900;BME280;11114;50.658;12.704;2022-07-23T06:56:12;96167.75;;;21.83;55.58
21900;BME280;11114;50.658;12.704;2022-07-23T06:58:39;96172.34;;;21.76;55.76
21900;BME280;11114;50.658;12.704;2022-07-23T07:01:06;96173.38;;;21.75;55.92
21900;BME280;11114;50.658;12.704;2022-07-23T07:03:34;96164.88;;;21.85;55.83
21900;BME280;11114;50.658;12.704;2022-07-23T07:06:00;96173.75;;;21.79;55.74
21900;BME280;11114;50.658;12.704;2022-07-23T07:08:28;96171.56;;;21.76;55.66
21900;BME280;11114;50.658;12.704;2022-07-23T07:10:56;96158.16;;;21.82;55.70
21900;BME280;11114;50.658;12.704;2022-07-23T07:13:23;96134.25;;;21.94;54.88
21900;BME280;11114;50.658;12.704;2022-07-23T07:15:50;96145.56;;;22.76;53.53
21900;BME280;11114;50.658;12.704;2022-07-23T07:18:17;96143.00;;;22.69;53.87
21900;BME280;11114;50.658;12.704;2022-07-23T07:20:44;96154.59;;;22.75;53.67
21900;BME280;11114;50.658;12.704;2022-07-23T07:23:12;96116.03;;;23.28;51.83
21900;BME280;11114;50.658;12.704;2022-07-23T07:25:42;96097.06;;;25.48;47.87
21900;BME280;11114;50.658;12.704;2022-07-23T07:28:08;96114.53;;;24.91;48.83
21900;BME280;11114;50.658;12.704;2022-07-23T07:30:35;96142.09;;;24.42;50.30
21900;BME280;11114;50.658;12.704;2022-07-23T07:33:02;96145.88;;;24.13;50.73
21900;BME280;11114;50.658;12.704;2022-07-23T07:35:29;96144.94;;;24.19;51.05
21900;BME280;11114;50.658;12.704;2022-07-23T07:37:55;96152.66;;;23.88;51.25
21900;BME280;11114;50.658;12.704;2022-07-23T07:40:22;96137.28;;;23.79;51.12
21900;BME280;11114;50.658;12.704;2022-07-23T07:42:51;96151.94;;;23.65;51.87
21900;BME280;11114;50.658;12.704;2022-07-23T07:45:23;96129.84;;;23.81;51.45
21900;BME280;11114;50.658;12.704;2022-07-23T07:47:51;96141.69;;;24.01;51.20
21900;BME280;11114;50.658;12.704;2022-07-23T07:50:20;96134.91;;;24.26;50.06
21900;BME280;11114;50.658;12.704;2022-07-23T07:52:47;96140.47;;;24.08;50.87
21900;BME280;11114;50.658;12.704;2022-07-23T07:55:14;96153.94;;;23.58;51.25
21900;BME280;11114;50.658;12.704;2022-07-23T07:57:43;96149.56;;;23.01;52.56
21900;BME280;11114;50.658;12.704;2022-07-23T08:00:15;96146.47;;;22.70;53.47
21900;BME280;11114;50.658;12.704;2022-07-23T08:02:53;96146.16;;;22.43;54.36
21900;BME280;11114;50.658;12.704;2022-07-23T08:05:26;96143.94;;;22.52;54.28
21900;BME280;11114;50.658;12.704;2022-07-23T08:07:58;96138.28;;;22.71;54.19
21900;BME280;11114;50.658;12.704;2022-07-23T08:10:26;96140.09;;;22.82;53.73
21900;BME280;11114;50.658;12.704;2022-07-23T08:12:55;96128.25;;;23.01;53.83
21900;BME280;11114;50.658;12.704;2022-07-23T08:15:25;96129.78;;;23.09;53.45
21900;BME280;11114;50.658;12.704;2022-07-23T08:17:52;96147.94;;;23.00;53.79
21900;BME280;11114;50.658;12.704;2022-07-23T08:20:21;96140.91;;;23.06;53.89
21900;BME280;11114;50.658;12.704;2022-07-23T08:23:01;96138.69;;;23.14;53.86
21900;BME280;11114;50.658;12.704;2022-07-23T08:25:34;96134.06;;;23.93;52.67
21900;BME280;11114;50.658;12.704;2022-07-23T08:28:03;96126.88;;;26.09;47.79
21900;BME280;11114;50.658;12.704;2022-07-23T08:30:32;96124.88;;;26.57;47.02
21900;BME280;11114;50.658;12.704;2022-07-23T08:33:04;96128.16;;;27.81;45.02
21900;BME280;11114;50.658;12.704;2022-07-23T08:35:34;96123.66;;;28.41;43.57
21900;BME280;11114;50.658;12.704;2022-07-23T08:38:03;96131.84;;;29.24;42.28
21900;BME280;11114;50.658;12.704;2022-07-23T08:40:32;96140.84;;;29.63;41.00
21900;BME280;11114;50.658;12.704;2022-07-23T08:43:04;96134.34;;;29.74;41.21
21900;BME280;11114;50.658;12.704;2022-07-23T08:45:35;96137.03;;;29.69;41.57
21900;BME280;11114;50.658;12.704;2022-07-23T08:48:03;96137.50;;;29.23;40.71
21900;BME280;11114;50.658;12.704;2022-07-23T08:50:34;96153.88;;;29.36;40.76
21900;BME280;11114;50.658;12.704;2022-07-23T08:53:06;96163.66;;;30.24;40.28
21900;BME280;11114;50.658;12.704;2022-07-23T08:55:34;96162.94;;;30.52;38.93
21900;BME280;11114;50.658;12.704;2022-07-23T08:58:01;96164.50;;;29.71;40.50
21900;BME280;11114;50.658;12.704;2022-07-23T09:00:28;96170.41;;;28.90;42.28
21900;BME280;11114;50.658;12.704;2022-07-23T09:02:55;96181.91;;;28.21;42.84
21900;BME280;11114;50.658;12.704;2022-07-23T09:05:22;96186.97;;;28.03;43.33
21900;BME280;11114;50.658;12.704;2022-07-23T09:08:11;96194.81;;;27.53;43.94
21900;BME280;11114;50.658;12.704;2022-07-23T09:10:47;96195.47;;;27.24;45.08
21900;BME280;11114;50.658;12.704;2022-07-23T09:13:38;96186.94;;;26.90;44.61
21900;BME280;11114;50.658;12.704;2022-07-23T09:16:12;96172.22;;;28.20;42.59
21900;BME280;11114;50.658;12.704;2022-07-23T09:21:29;96178.78;;;29.67;40.58
21900;BME280;11114;50.658;12.704;2022-07-23T09:24:00;96184.44;;;29.65;40.86
21900;BME280;11114;50.658;12.704;2022-07-23T09:29:01;96185.53;;;30.56;39.00
21900;BME280;11114;50.658;12.704;2022-07-23T09:34:07;96193.19;;;30.39;39.36
21900;BME280;11114;50.658;12.704;2022-07-23T09:36:35;96199.88;;;30.08;39.55
21900;BME280;11114;50.658;12.704;2022-07-23T09:39:03;96194.72;;;30.07;39.11
21900;BME280;11114;50.658;12.704;2022-07-23T09:41:42;96193.56;;;29.69;39.74
21900;BME280;11114;50.658;12.704;2022-07-23T09:44:11;96193.66;;;29.34;40.25
21900;BME280;11114;50.658;12.704;2022-07-23T09:46:38;96195.78;;;29.52;40.07
21900;BME280;11114;50.658;12.704;2022-07-23T09:49:20;96198.03;;;29.06;40.62
21900;BME280;11114;50.658;12.704;2022-07-23T09:51:50;96199.63;;;29.22;40.50
21900;BME280;11114;50.658;12.704;2022-07-23T09:56:56;96190.44;;;30.06;38.91
21900;BME280;11114;50.658;12.704;2022-07-23T09:59:29;96196.91;;;29.46;40.13
21900;BME280;11114;50.658;12.704;2022-07-23T10:01:58;96200.47;;;28.92;40.89
21900;BME280;11114;50.658;12.704;2022-07-23T10:04:30;96210.41;;;28.67;42.07
21900;BME280;11114;50.658;12.704;2022-07-23T10:07:39;96216.53;;;28.18;41.89
21900;BME280;11114;50.658;12.704;2022-07-23T10:10:35;96218.72;;;27.59;42.93
21900;BME280;11114;50.658;12.704;2022-07-23T10:13:21;96228.06;;;27.01;43.61
21900;BME280;11114;50.658;12.704;2022-07-23T10:16:08;96234.69;;;26.62;44.72
21900;BME280;11114;50.658;12.704;2022-07-23T10:18:35;96225.56;;;26.58;44.92
21900;BME280;11114;50.658;12.704;2022-07-23T10:21:09;96218.97;;;26.39;45.02
21900;BME280;11114;50.658;12.704;2022-07-23T10:23:45;96213.28;;;26.09;45.98
21900;BME280;11114;50.658;12.704;2022-07-23T10:26:26;96201.88;;;25.92;46.36
21900;BME280;11114;50.658;12.704;2022-07-23T10:32:16;96215.31;;;25.55;46.75
21900;BME280;11114;50.658;12.704;2022-07-23T10:34:52;96234.28;;;25.32;47.69
21900;BME280;11114;50.658;12.704;2022-07-23T10:37:41;96235.25;;;25.09;48.52
21900;BME280;11114;50.658;12.704;2022-07-23T10:40:16;96236.19;;;25.15;49.07
21900;BME280;11114;50.658;12.704;2022-07-23T10:42:46;96230.97;;;25.25;48.47
21900;BME280;11114;50.658;12.704;2022-07-23T10:45:25;96224.63;;;25.52;48.01
21900;BME280;11114;50.658;12.704;2022-07-23T10:47:54;96221.00;;;25.80;47.53
21900;BME280;11114;50.658;12.704;2022-07-23T10:50:28;96229.66;;;25.86;47.30
21900;BME280;11114;50.658;12.704;2022-07-23T10:53:17;96238.72;;;25.64;47.14
21900;BME280;11114;50.658;12.704;2022-07-23T10:55:47;96239.66;;;25.37;47.56
21900;BME280;11114;50.658;12.704;2022-07-23T10:58:18;96236.25;;;25.20;48.39
21900;BME280;11114;50.658;12.704;2022-07-23T11:00:47;96238.75;;;25.26;48.39
21900;BME280;11114;50.658;12.704;2022-07-23T11:03:35;96248.06;;;25.24;48.54
21900;BME280;11114;50.658;12.704;2022-07-23T11:06:04;96238.41;;;25.39;48.56
21900;BME280;11114;50.658;12.704;2022-07-23T11:08:32;96243.00;;;25.44;48.04
21900;BME280;11114;50.658;12.704;2022-07-23T11:13:51;96223.91;;;25.57;48.29
21900;BME280;11114;50.658;12.704;2022-07-23T11:16:20;96217.66;;;26.42;47.52
21900;BME280;11114;50.658;12.704;2022-07-23T11:24:10;96221.56;;;27.89;45.13
21900;BME280;11114;50.658;12.704;2022-07-23T11:29:37;96216.63;;;28.82;42.55
21900;BME280;11114;50.658;12.704;2022-07-23T11:32:23;96223.88;;;29.02;41.42
21900;BME280;11114;50.658;12.704;2022-07-23T11:34:52;96220.59;;;29.24;43.03
21900;BME280;11114;50.658;12.704;2022-07-23T11:37:37;96221.84;;;29.62;41.04
21900;BME280;11114;50.658;12.704;2022-07-23T11:40:08;96229.25;;;29.90;40.92
21900;BME280;11114;50.658;12.704;2022-07-23T11:42:39;96220.97;;;30.34;40.48
21900;BME280;11114;50.658;12.704;2022-07-23T11:45:08;96221.50;;;29.83;40.51
21900;BME280;11114;50.658;12.704;2022-07-23T11:47:35;96227.94;;;29.92;40.51
21900;BME280;11114;50.658;12.704;2022-07-23T11:50:04;96212.50;;;30.12;39.63
21900;BME280;11114;50.658;12.704;2022-07-23T11:52:33;96212.63;;;30.31;39.19
21900;BME280;11114;50.658;12.704;2022-07-23T11:55:05;96215.88;;;30.28;38.97
21900;BME280;11114;50.658;12.704;2022-07-23T11:57:34;96226.78;;;30.08;40.52
21900;BME280;11114;50.658;12.704;2022-07-23T12:00:11;96224.63;;;29.42;40.74
21900;BME280;11114;50.658;12.704;2022-07-23T12:02:47;96235.44;;;28.97;40.17
21900;BME280;11114;50.658;12.704;2022-07-23T12:05:20;96232.72;;;28.67;41.39
21900;BME280;11114;50.658;12.704;2022-07-23T12:07:49;96229.22;;;28.77;41.19
21900;BME280;11114;50.658;12.704;2022-07-23T12:10:27;96226.25;;;28.78;41.22
21900;BME280;11114;50.658;12.704;2022-07-23T12:13:08;96225.22;;;28.89;41.62
21900;BME280;11114;50.658;12.704;2022-07-23T12:15:42;96219.53;;;28.61;41.15
21900;BME280;11114;50.658;12.704;2022-07-23T12:18:11;96214.72;;;28.58;41.90
21900;BME280;11114;50.658;12.704;2022-07-23T12:20:44;96219.03;;;28.94;41.24
21900;BME280;11114;50.658;12.704;2022-07-23T12:23:12;96220.03;;;29.42;40.78
21900;BME280;11114;50.658;12.704;2022-07-23T12:25:48;96211.41;;;29.55;40.41
21900;BME280;11114;50.658;12.704;2022-07-23T12:28:17;96209.06;;;29.14;40.01
21900;BME280;11114;50.658;12.704;2022-07-23T12:33:14;96204.22;;;29.11;41.25
21900;BME280;11114;50.658;12.704;2022-07-23T12:35:45;96201.53;;;29.11;40.62
21900;BME280;11114;50.658;12.704;2022-07-23T12:38:18;96199.66;;;29.12;40.67
21900;BME280;11114;50.658;12.704;2022-07-23T12:40:50;96204.22;;;29.11;40.92
21900;BME280;11114;50.658;12.704;2022-07-23T12:43:31;96204.19;;;29.21;40.87
21900;BME280;11114;50.658;12.704;2022-07-23T12:46:10;96204.44;;;29.24;40.79
21900;BME280;11114;50.658;12.704;2022-07-23T12:51:22;96209.34;;;28.48;41.29
21900;BME280;11114;50.658;12.704;2022-07-23T12:53:59;96207.72;;;28.47;42.10
21900;BME280;11114;50.658;12.704;2022-07-23T12:56:39;96210.94;;;28.44;42.19
21900;BME280;11114;50.658;12.704;2022-07-23T12:59:09;96214.69;;;28.33;42.00
21900;BME280;11114;50.658;12.704;2022-07-23T13:01:44;96218.47;;;28.47;42.11
21900;BME280;11114;50.658;12.704;2022-07-23T13:04:22;96217.94;;;28.55;42.03
21900;BME280;11114;50.658;12.704;2022-07-23T13:06:54;96225.72;;;28.41;41.86
21900;BME280;11114;50.658;12.704;2022-07-23T13:09:27;96218.94;;;28.14;42.44
21900;BME280;11114;50.658;12.704;2022-07-23T13:11:59;96221.81;;;27.83;42.90
21900;BME280;11114;50.658;12.704;2022-07-23T13:14:27;96233.56;;;27.67;42.91
21900;BME280;11114;50.658;12.704;2022-07-23T13:16:55;96235.31;;;27.51;43.47
21900;BME280;11114;50.658;12.704;2022-07-23T13:19:24;96237.44;;;27.49;43.37
21900;BME280;11114;50.658;12.704;2022-07-23T13:21:53;96240.06;;;27.35;43.73
21900;BME280;11114;50.658;12.704;2022-07-23T13:24:21;96241.56;;;27.21;43.94
21900;BME280;11114;50.658;12.704;2022-07-23T13:26:47;96235.50;;;26.99;44.54
21900;BME280;11114;50.658;12.704;2022-07-23T13:29:17;96240.72;;;26.79;44.77
21900;BME280;11114;50.658;12.704;2022-07-23T13:32:04;96228.28;;;26.63;44.79
21900;BME280;11114;50.658;12.704;2022-07-23T13:34:39;96220.16;;;26.53;45.37